Accueil
METAR-TAF:

METAR-TAF

Aéroports :

Jim Kelly Field

Lexington, Nebraska, États-Unis

latitude: 40-47-28N, longitude: 099-46-38W, altitude: 736 m

Observation

Le bulletin a été fait il y a 42 minutes, à 01:15 UTC
Vent 4 kt de est/sud-est
Température 25°C
Humidité 61%
Pression 1021 hPa
Visibilité: 16.1 km
Ciel clair

METAR: KLXN 220115Z AUTO 12004KT 10SM CLR 25/17 A3015 RMK AO2 LTG DSNT NW T02450169

Heure: 20:57 (01:57 UTC)


TAF: absent

Observations et prévisions météorologiques de plus de 4000 aéroports (messages METAR et TAF).

Les stations disponibles sont représentées par des disques jaunes et rouges sur la carte.

Passer la souris dessus pour voir le nom de la station.

Cliquer dessus pour voir les observations et prévisions météorologiques.

Pour changer de carte: cliquez sur les boutons verts avec une croix noire pour zoomer, sur le bouton vert avec un tiret pour effectuer un zoom arrière, ou sur les flèches vertes pour les cartes adjacentes.


METAR-TAF: